Time;durP1;ratioP1;P1;durP2;ratioP2;P2;SDS_P1;SDS_P2;PMS_P1;PMS_P2;Temp;Humidity;BMP_temperature;BMP_pressure;BME280_temperature;BME280_humidity;BME280_pressure;Samples;Min_cycle;Max_cycle;Signal;HPM_P1;HPM_P2
2022/08/12 00:44:25;;;;;;;0.80;0.80;;;18.90;99.90;;;;;;5048817;28;20055;-71
2022/08/12 00:46:53;;;;;;;0.70;0.70;;;18.90;99.90;;;;;;5085137;28;20044;-71
2022/08/12 00:49:22;;;;;;;0.90;0.80;;;18.90;99.90;;;;;;5085090;28;20076;-71
2022/08/12 00:52:05;;;;;;;1.05;0.70;;;18.80;99.90;;;;;;5098632;28;20097;-71
2022/08/12 00:54:52;;;;;;;0.40;0.40;;;18.80;99.90;;;;;;5056795;28;20495;-71
2022/08/12 00:57:21;;;;;;;0.40;0.40;;;18.80;99.90;;;;;;5066058;28;20151;-71
2022/08/12 01:00:00;;;;;;;0.45;0.45;;;18.80;99.90;;;;;;5051405;28;20040;-71
2022/08/12 01:02:31;;;;;;;0.35;0.35;;;18.80;99.90;;;;;;5049768;28;20120;-71
2022/08/12 01:13:39;;;;;;;1.30;1.00;;;18.80;99.90;;;;;;5083458;28;20047;-71
2022/08/12 01:16:07;;;;;;;0.70;0.60;;;18.80;99.90;;;;;;5050646;28;20127;-71
2022/08/12 01:18:36;;;;;;;1.08;0.98;;;18.80;99.90;;;;;;5099614;28;20109;-71
2022/08/12 01:21:26;;;;;;;0.70;0.70;;;18.80;99.90;;;;;;5054047;28;20071;-71
2022/08/12 01:24:26;;;;;;;0.95;0.63;;;18.80;99.90;;;;;;5055330;28;20494;-71
2022/08/12 01:26:54;;;;;;;1.00;0.80;;;18.80;99.90;;;;;;5055228;28;20044;-71
2022/08/12 01:29:27;;;;;;;0.57;0.57;;;18.80;99.90;;;;;;5051574;28;20056;-71
2022/08/12 01:31:58;;;;;;;0.50;0.50;;;18.80;99.90;;;;;;5054075;28;20505;-71
2022/08/12 01:34:31;;;;;;;0.40;0.40;;;18.80;99.90;;;;;;5085992;28;20048;-71
2022/08/12 01:37:01;;;;;;;0.45;0.30;;;18.80;99.90;;;;;;5053985;28;20117;-71
2022/08/12 01:39:49;;;;;;;0.60;0.50;;;18.80;99.90;;;;;;5053572;28;20055;-71
2022/08/12 01:42:19;;;;;;;0.32;0.30;;;18.70;99.90;;;;;;5059019;28;20070;-71
2022/08/12 01:44:46;;;;;;;0.40;0.40;;;18.70;99.90;;;;;;5070280;28;20044;-71
2022/08/12 01:47:29;;;;;;;0.75;0.38;;;18.70;99.90;;;;;;5053760;28;20068;-71
2022/08/12 01:50:16;;;;;;;0.30;0.30;;;18.70;99.90;;;;;;5053156;28;20088;-71
2022/08/12 01:52:56;;;;;;;0.35;0.35;;;18.60;99.90;;;;;;5065617;28;20040;-71
2022/08/12 01:55:28;;;;;;;0.40;0.40;;;18.70;99.90;;;;;;5068636;28;20174;-71
2022/08/12 01:58:14;;;;;;;0.55;0.50;;;18.70;99.90;;;;;;5068199;28;20048;-71
2022/08/12 02:00:51;;;;;;;0.68;0.40;;;18.60;99.90;;;;;;5051995;28;20048;-71
2022/08/12 02:13:29;;;;;;;0.20;0.20;;;18.50;99.90;;;;;;5047661;28;20051;-71
2022/08/12 02:16:45;;;;;;;0.73;0.40;;;18.50;99.90;;;;;;5054950;28;20128;-71
2022/08/12 02:19:24;;;;;;;0.25;0.25;;;18.50;99.90;;;;;;5054286;28;20397;-71
2022/08/12 02:22:18;;;;;;;0.10;0.10;;;18.40;99.90;;;;;;5085798;28;20389;-71
2022/08/12 02:24:47;;;;;;;0.20;0.20;;;18.40;99.90;;;;;;5060233;28;20049;-71
2022/08/12 02:27:14;;;;;;;0.10;0.10;;;18.40;99.90;;;;;;5052807;28;20040;-71
2022/08/12 02:29:40;;;;;;;0.40;0.30;;;18.40;99.90;;;;;;5054024;28;20056;-71
2022/08/12 02:32:06;;;;;;;;;;;18.30;99.90;;;;;;5069011;28;20127;-71
2022/08/12 02:34:32;;;;;;;0.20;0.20;;;18.30;99.90;;;;;;5084256;28;19977;-71
2022/08/12 02:37:00;;;;;;;0.50;0.40;;;18.30;99.90;;;;;;5037979;28;20053;-71
2022/08/12 02:39:30;;;;;;;0.30;0.30;;;18.20;99.90;;;;;;5087384;28;20044;-71
2022/08/12 02:41:59;;;;;;;0.40;0.40;;;18.20;99.90;;;;;;5052820;28;20771;-72
2022/08/12 02:44:29;;;;;;;0.20;0.20;;;18.20;99.90;;;;;;5052077;28;20044;-71
2022/08/12 02:46:59;;;;;;;1.05;0.40;;;18.30;99.90;;;;;;5071121;28;20360;-71
2022/08/12 02:49:30;;;;;;;0.20;0.20;;;18.20;99.90;;;;;;5086931;28;20036;-71
2022/08/12 02:51:58;;;;;;;0.25;0.25;;;18.30;99.90;;;;;;5051412;28;20040;-71
2022/08/12 02:54:25;;;;;;;0.40;0.40;;;18.20;99.90;;;;;;5051515;28;20051;-71
2022/08/12 02:56:51;;;;;;;0.45;0.43;;;18.20;99.90;;;;;;5036596;28;20052;-71
2022/08/12 02:59:21;;;;;;;0.20;0.20;;;18.20;99.90;;;;;;5084997;28;20483;-71
2022/08/12 03:01:50;;;;;;;0.30;0.30;;;18.20;99.90;;;;;;5035021;28;20048;-71
2022/08/12 03:04:23;;;;;;;0.15;0.15;;;18.20;99.90;;;;;;5052232;28;20084;-71
2022/08/12 03:07:40;;;;;;;0.30;0.30;;;18.20;99.90;;;;;;5053097;28;20055;-71
2022/08/12 03:10:10;;;;;;;0.30;0.20;;;18.10;99.90;;;;;;5011910;28;20042;-71
2022/08/12 03:12:42;;;;;;;0.20;0.20;;;18.10;99.90;;;;;;5043712;28;20480;-71
2022/08/12 03:15:11;;;;;;;0.20;0.20;;;18.10;99.90;;;;;;5084903;28;20095;-71
2022/08/12 03:17:50;;;;;;;0.40;0.38;;;18.10;99.90;;;;;;5053770;28;20051;-71
2022/08/12 03:20:19;;;;;;;0.20;0.20;;;18.10;99.90;;;;;;5035602;28;20517;-71
2022/08/12 03:22:46;;;;;;;0.40;0.30;;;18.00;99.90;;;;;;5086841;28;20049;-71
2022/08/12 03:25:26;;;;;;;0.20;0.20;;;18.00;99.90;;;;;;5052663;28;20571;-71
2022/08/12 03:27:57;;;;;;;0.20;0.20;;;18.00;99.90;;;;;;5087098;28;20036;-71
2022/08/12 03:30:28;;;;;;;0.20;0.20;;;18.00;99.90;;;;;;5052894;28;20125;-71
2022/08/12 03:32:56;;;;;;;0.20;0.20;;;18.00;99.90;;;;;;5053202;28;20032;-71
2022/08/12 03:35:26;;;;;;;0.30;0.30;;;18.00;99.90;;;;;;5070201;28;20044;-71
2022/08/12 03:38:07;;;;;;;0.30;0.30;;;18.00;99.90;;;;;;5053138;28;20511;-71
2022/08/12 04:00:19;;;;;;;0.80;0.80;;;18.00;99.90;;;;;;5052868;28;20561;-71
2022/08/12 04:02:54;;;;;;;0.68;0.60;;;18.00;99.90;;;;;;5051967;28;20051;-71
2022/08/12 04:05:20;;;;;;;0.52;0.43;;;17.90;99.90;;;;;;5052817;28;20051;-71
2022/08/12 04:07:47;;;;;;;1.60;0.70;;;17.90;99.90;;;;;;5087534;28;20032;-71
2022/08/12 04:10:13;;;;;;;0.70;0.60;;;17.90;99.90;;;;;;5086410;28;20123;-71
2022/08/12 04:15:27;;;;;;;0.57;0.57;;;17.80;99.90;;;;;;5081671;28;20388;-71
2022/08/12 04:17:54;;;;;;;0.40;0.40;;;17.80;99.90;;;;;;5082090;28;20369;-71
2022/08/12 04:20:21;;;;;;;0.30;0.30;;;17.80;99.90;;;;;;5086173;28;20056;-71
2022/08/12 04:22:47;;;;;;;0.50;0.50;;;17.80;99.90;;;;;;5049719;28;20091;-71
2022/08/12 04:25:13;;;;;;;0.77;0.50;;;17.90;99.90;;;;;;5051974;28;20498;-71
2022/08/12 04:27:43;;;;;;;0.60;0.60;;;17.80;99.90;;;;;;5085406;28;20041;-71
2022/08/12 04:30:10;;;;;;;1.23;0.80;;;17.80;99.90;;;;;;5050512;28;20045;-71
2022/08/12 04:32:36;;;;;;;0.57;0.40;;;17.80;99.90;;;;;;5048132;28;20056;-71
2022/08/12 04:35:02;;;;;;;0.60;0.60;;;17.80;99.90;;;;;;5084086;28;20040;-71
2022/08/12 04:37:28;;;;;;;0.47;0.47;;;17.80;99.90;;;;;;5081669;28;20079;-71
2022/08/12 04:39:54;;;;;;;;;;;17.80;99.90;;;;;;5034167;28;20620;-71
2022/08/12 04:42:20;;;;;;;0.70;0.50;;;17.80;99.90;;;;;;5050701;28;19959;-71
2022/08/12 04:44:47;;;;;;;;;;;17.80;99.90;;;;;;5031401;28;20097;-71
2022/08/12 04:47:14;;;;;;;0.52;0.52;;;17.80;99.90;;;;;;5081681;28;19936;-70
2022/08/12 04:49:41;;;;;;;1.60;0.90;;;17.80;99.90;;;;;;5039244;28;20480;-70
2022/08/12 04:52:08;;;;;;;0.47;0.47;;;17.80;99.90;;;;;;5086089;28;20044;-72
2022/08/12 04:54:34;;;;;;;0.60;0.60;;;17.80;99.90;;;;;;5062442;28;20047;-72
2022/08/12 04:57:00;;;;;;;;;;;17.80;99.90;;;;;;5035794;28;20036;-72
2022/08/12 04:59:26;;;;;;;0.88;0.60;;;17.90;99.90;;;;;;5039544;28;19978;-72
2022/08/12 05:01:56;;;;;;;0.65;0.65;;;17.90;99.90;;;;;;5087320;28;20075;-72
2022/08/12 05:04:26;;;;;;;1.17;0.85;;;17.90;99.90;;;;;;5066678;28;20048;-72
2022/08/12 05:06:52;;;;;;;0.70;0.60;;;18.00;99.90;;;;;;5078083;28;20052;-72
2022/08/12 05:09:18;;;;;;;;;;;18.00;99.90;;;;;;5056229;28;20044;-72
2022/08/12 05:11:48;;;;;;;0.68;0.68;;;18.00;99.90;;;;;;5089648;28;19973;-72
2022/08/12 05:14:14;;;;;;;0.95;0.90;;;18.00;99.90;;;;;;5038985;28;20051;-72
2022/08/12 05:16:40;;;;;;;0.85;0.80;;;18.00;99.90;;;;;;5038996;28;20036;-72
2022/08/12 05:19:06;;;;;;;1.20;0.70;;;18.10;99.90;;;;;;5057838;28;20488;-81
2022/08/12 05:21:32;;;;;;;;;;;18.10;99.90;;;;;;5067716;28;20044;-84
2022/08/12 05:23:59;;;;;;;0.93;0.82;;;18.20;99.90;;;;;;5035912;28;19924;-88
2022/08/12 05:26:25;;;;;;;0.80;0.63;;;18.20;99.90;;;;;;5034486;28;20044;-86
2022/08/12 05:28:52;;;;;;;1.10;0.80;;;18.20;99.90;;;;;;5042220;28;20064;-85
2022/08/12 05:31:19;;;;;;;1.67;1.20;;;18.30;99.90;;;;;;5051999;28;20036;-71
2022/08/12 05:33:46;;;;;;;1.20;0.80;;;18.40;99.90;;;;;;5069347;28;20041;-72
2022/08/12 05:36:14;;;;;;;0.77;0.70;;;18.30;99.90;;;;;;5070252;28;20053;-72
2022/08/12 05:38:56;;;;;;;1.08;0.88;;;18.40;99.90;;;;;;5036814;28;20185;-72
2022/08/12 05:41:31;;;;;;;1.30;0.70;;;18.50;99.90;;;;;;5081770;28;20526;-72
2022/08/12 05:44:06;;;;;;;0.80;0.80;;;18.50;99.90;;;;;;5055088;28;20087;-72
2022/08/12 05:46:33;;;;;;;1.25;0.85;;;18.60;99.90;;;;;;5076870;28;20464;-72
2022/08/12 05:48:59;;;;;;;1.25;0.95;;;18.60;99.90;;;;;;5051090;28;20044;-72
2022/08/12 05:51:30;;;;;;;0.80;0.80;;;18.60;99.90;;;;;;5069152;28;20040;-71
2022/08/12 05:53:58;;;;;;;1.15;0.90;;;18.70;99.90;;;;;;5081229;28;20045;-71
2022/08/12 05:56:32;;;;;;;1.25;0.93;;;18.70;99.90;;;;;;5061687;28;20054;-72
2022/08/12 05:59:00;;;;;;;1.05;0.85;;;18.80;99.90;;;;;;5052381;28;20349;-71
2022/08/12 06:01:28;;;;;;;1.17;0.77;;;18.90;99.90;;;;;;5054419;28;20049;-71
2022/08/12 06:03:54;;;;;;;0.77;0.75;;;18.90;99.90;;;;;;5054116;28;20082;-71
2022/08/12 06:06:21;;;;;;;0.90;0.70;;;19.00;99.90;;;;;;5050220;28;20041;-72
2022/08/12 06:08:52;;;;;;;0.73;0.73;;;19.10;99.90;;;;;;5083239;28;21405;-72
2022/08/12 06:11:24;;;;;;;0.70;0.68;;;19.10;99.90;;;;;;5031963;28;20079;-72
2022/08/12 06:13:51;;;;;;;1.42;0.75;;;19.20;99.90;;;;;;5081615;28;20040;-72
2022/08/12 06:16:19;;;;;;;0.80;0.60;;;19.30;99.90;;;;;;5052055;28;20048;-74
2022/08/12 06:18:46;;;;;;;0.88;0.80;;;19.40;99.90;;;;;;5051985;28;20036;-73
2022/08/12 06:21:14;;;;;;;0.40;0.40;;;19.50;99.90;;;;;;5051503;28;20032;-73
2022/08/12 06:23:41;;;;;;;1.30;0.70;;;19.70;99.90;;;;;;5054773;28;20048;-73
2022/08/12 06:26:10;;;;;;;1.92;0.88;;;19.80;99.90;;;;;;5054492;28;20044;-73
2022/08/12 06:28:37;;;;;;;0.70;0.70;;;19.90;99.90;;;;;;5037729;28;20475;-73
2022/08/12 06:31:05;;;;;;;0.80;0.60;;;20.10;99.90;;;;;;5054368;28;20055;-73
2022/08/12 06:33:31;;;;;;;0.85;0.70;;;20.20;99.90;;;;;;5054387;28;20040;-73
2022/08/12 06:35:57;;;;;;;0.95;0.52;;;20.40;99.90;;;;;;5054783;28;20044;-73
2022/08/12 06:38:24;;;;;;;0.73;0.50;;;20.80;99.90;;;;;;5067493;28;20041;-73
2022/08/12 06:43:42;;;;;;;1.23;0.70;;;21.10;99.90;;;;;;5067591;28;20087;-73
2022/08/12 06:46:08;;;;;;;1.08;0.63;;;21.10;99.90;;;;;;5050895;28;20048;-73
2022/08/12 06:48:36;;;;;;;0.60;0.50;;;21.20;99.90;;;;;;5067703;28;20369;-73
2022/08/12 06:51:02;;;;;;;0.50;0.50;;;21.20;99.90;;;;;;5034268;28;20049;-73
2022/08/12 06:53:31;;;;;;;0.60;0.60;;;21.40;99.90;;;;;;5050929;28;20092;-73
2022/08/12 06:55:59;;;;;;;0.70;0.70;;;21.50;99.90;;;;;;5034162;28;20094;-73
2022/08/12 06:58:29;;;;;;;1.45;0.90;;;21.60;99.90;;;;;;5034275;28;20444;-73
2022/08/12 07:00:56;;;;;;;1.30;0.70;;;21.70;99.90;;;;;;5033997;28;20045;-73
2022/08/12 07:03:27;;;;;;;0.88;0.60;;;21.90;99.90;;;;;;5034115;28;20041;-73
2022/08/12 07:05:58;;;;;;;1.20;0.73;;;22.10;99.90;;;;;;5033811;28;20451;-73
2022/08/12 07:08:27;;;;;;;0.77;0.70;;;22.20;99.90;;;;;;5033926;28;20110;-73
2022/08/12 07:10:58;;;;;;;0.70;0.70;;;22.40;99.90;;;;;;5034070;28;20124;-73
2022/08/12 07:13:34;;;;;;;1.20;0.90;;;22.60;99.90;;;;;;5033641;28;20128;-74
2022/08/12 07:16:01;;;;;;;1.38;0.90;;;22.80;99.90;;;;;;5050648;28;20396;-74
2022/08/12 07:18:31;;;;;;;0.70;0.70;;;23.00;99.90;;;;;;5033749;28;20041;-73
2022/08/12 07:20:59;;;;;;;0.68;0.60;;;23.40;99.90;;;;;;5066445;28;20118;-74
2022/08/12 07:23:26;;;;;;;0.98;0.80;;;23.80;99.70;;;;;;5033807;28;20056;-73
2022/08/12 07:25:52;;;;;;;1.63;0.90;;;24.10;98.40;;;;;;5050044;28;20049;-74
2022/08/12 07:28:24;;;;;;;1.13;0.80;;;24.50;97.80;;;;;;5068894;28;20047;-73
2022/08/12 07:30:51;;;;;;;0.88;0.77;;;25.00;96.70;;;;;;5053559;28;20044;-73
2022/08/12 07:33:21;;;;;;;1.88;0.90;;;25.40;96.80;;;;;;5036539;28;20444;-73
2022/08/12 07:35:47;;;;;;;0.93;0.80;;;25.80;96.10;;;;;;5053398;28;20044;-73
2022/08/12 07:38:29;;;;;;;1.50;0.70;;;26.20;95.60;;;;;;5053435;28;20052;-73
2022/08/12 07:40:56;;;;;;;1.05;0.70;;;26.60;95.10;;;;;;5053474;28;20534;-73
2022/08/12 07:43:22;;;;;;;0.70;0.60;;;26.80;95.20;;;;;;5053303;28;20123;-73
2022/08/12 07:45:50;;;;;;;0.95;0.50;;;26.90;94.90;;;;;;5036515;28;20570;-73
2022/08/12 07:48:16;;;;;;;1.02;0.70;;;26.90;94.50;;;;;;5036440;28;20040;-73
2022/08/12 07:50:42;;;;;;;0.60;0.52;;;27.20;94.40;;;;;;5070133;28;20039;-73
2022/08/12 07:53:08;;;;;;;0.70;0.70;;;27.40;94.20;;;;;;5036376;28;20044;-74
2022/08/12 07:55:35;;;;;;;1.17;0.90;;;27.40;94.00;;;;;;5036587;28;20044;-73
2022/08/12 07:58:01;;;;;;;1.40;0.70;;;27.60;93.50;;;;;;5053192;28;20052;-74
2022/08/12 08:00:30;;;;;;;0.88;0.70;;;27.80;93.50;;;;;;5069855;28;20102;-74
2022/08/12 08:02:57;;;;;;;0.82;0.57;;;28.00;93.00;;;;;;5052997;28;20076;-73
2022/08/12 08:05:26;;;;;;;0.55;0.55;;;27.90;92.80;;;;;;5052935;28;20044;-74
2022/08/12 08:07:59;;;;;;;0.60;0.60;;;27.90;93.00;;;;;;5052838;28;20105;-74
2022/08/12 08:10:25;;;;;;;0.95;0.70;;;28.10;92.40;;;;;;5053047;28;20048;-74
2022/08/12 08:12:53;;;;;;;1.20;0.80;;;28.10;92.60;;;;;;5052720;28;20406;-74
2022/08/12 08:15:35;;;;;;;0.60;0.60;;;28.10;91.80;;;;;;5036459;28;20044;-74
2022/08/12 08:18:04;;;;;;;1.20;0.65;;;28.20;92.80;;;;;;5032733;28;20194;-73
2022/08/12 08:20:42;;;;;;;0.60;0.50;;;28.00;93.10;;;;;;5032778;28;20045;-74
2022/08/12 08:23:12;;;;;;;0.35;0.30;;;28.00;92.60;;;;;;5049212;28;20412;-73
2022/08/12 08:25:38;;;;;;;0.55;0.55;;;28.30;92.30;;;;;;5049306;28;20150;-74
2022/08/12 08:28:11;;;;;;;0.93;0.60;;;28.30;92.90;;;;;;5032615;28;20076;-74
2022/08/12 08:30:41;;;;;;;1.48;0.70;;;28.50;92.50;;;;;;5032893;28;20033;-74
2022/08/12 08:33:10;;;;;;;0.85;0.68;;;28.80;92.10;;;;;;5035403;28;20048;-74
2022/08/12 08:35:41;;;;;;;1.25;0.70;;;28.90;91.70;;;;;;5052972;28;20041;-74
2022/08/12 08:38:12;;;;;;;0.80;0.70;;;28.90;91.40;;;;;;5069930;28;20049;-74
2022/08/12 08:43:30;;;;;;;1.30;0.75;;;29.00;91.90;;;;;;5036504;28;20496;-74
2022/08/12 08:45:56;;;;;;;0.70;0.70;;;29.10;90.90;;;;;;5052900;28;20056;-74
2022/08/12 08:48:23;;;;;;;1.02;0.65;;;29.20;90.50;;;;;;5036420;28;20037;-74
2022/08/12 08:50:50;;;;;;;0.70;0.70;;;29.20;90.50;;;;;;5053164;28;20383;-74
2022/08/12 08:53:16;;;;;;;0.93;0.68;;;29.30;90.60;;;;;;5036528;28;20136;-74
2022/08/12 08:55:43;;;;;;;1.05;0.82;;;29.30;91.20;;;;;;5036369;28;20037;-74
2022/08/12 08:58:09;;;;;;;1.58;0.80;;;29.40;90.90;;;;;;5036446;28;20081;-74
2022/08/12 09:00:38;;;;;;;0.70;0.60;;;29.40;91.80;;;;;;5036728;28;20048;-74
2022/08/12 09:03:05;;;;;;;1.85;0.65;;;29.50;93.50;;;;;;5036387;28;20098;-74
2022/08/12 09:05:31;;;;;;;0.98;0.70;;;29.60;91.40;;;;;;5036265;28;20056;-74
2022/08/12 09:08:00;;;;;;;2.08;0.70;;;29.80;91.20;;;;;;5053348;28;20036;-74
2022/08/12 09:10:26;;;;;;;0.45;0.45;;;29.80;91.50;;;;;;5056188;28;20045;-74
2022/08/12 09:15:37;;;;;;;1.17;0.80;;;29.80;90.90;;;;;;5055987;28;20087;-74
2022/08/12 09:18:06;;;;;;;0.70;0.50;;;29.80;90.40;;;;;;5039107;28;20045;-74
2022/08/12 09:20:33;;;;;;;1.25;0.70;;;29.90;90.50;;;;;;5055991;28;20037;-74
2022/08/12 09:23:04;;;;;;;0.68;0.68;;;30.10;90.70;;;;;;5055479;28;20462;-74
2022/08/12 09:25:30;;;;;;;1.38;0.73;;;30.20;90.60;;;;;;5055523;28;20480;-74
2022/08/12 09:27:57;;;;;;;0.93;0.82;;;30.30;90.20;;;;;;5039077;28;20032;-74
2022/08/12 09:30:23;;;;;;;0.75;0.60;;;30.20;89.60;;;;;;5056062;28;20051;-74
2022/08/12 09:32:50;;;;;;;0.70;0.70;;;30.20;88.00;;;;;;5038969;28;20055;-74
2022/08/12 09:35:22;;;;;;;0.95;0.65;;;30.30;89.60;;;;;;5055694;28;20052;-74
2022/08/12 09:37:50;;;;;;;2.78;1.00;;;30.40;89.90;;;;;;5055677;28;20048;-74
2022/08/12 09:40:18;;;;;;;0.85;0.80;;;30.20;88.60;;;;;;5055626;28;20044;-74
2022/08/12 09:45:35;;;;;;;0.60;0.60;;;30.30;87.70;;;;;;5018448;28;20413;-74
2022/08/12 09:48:03;;;;;;;1.17;0.82;;;30.50;87.30;;;;;;5038814;28;20158;-74
2022/08/12 09:50:30;;;;;;;0.73;0.70;;;30.60;86.70;;;;;;5055775;28;20527;-74
2022/08/12 09:53:23;;;;;;;1.00;0.77;;;30.60;86.40;;;;;;5055280;28;20040;-74
2022/08/12 09:55:54;;;;;;;0.63;0.60;;;30.80;85.40;;;;;;5055251;28;20102;-74
2022/08/12 09:58:27;;;;;;;0.77;0.60;;;31.00;86.30;;;;;;5055100;28;20091;-74
2022/08/12 10:01:05;;;;;;;2.15;1.00;;;31.20;85.50;;;;;;5055014;28;20481;-74
2022/08/12 10:03:33;;;;;;;0.70;0.70;;;31.10;87.90;;;;;;5055191;28;20119;-74
2022/08/12 10:06:00;;;;;;;1.15;0.82;;;31.20;85.90;;;;;;5054910;28;20045;-74
2022/08/12 10:08:31;;;;;;;1.05;0.80;;;31.30;87.20;;;;;;5038292;28;20032;-74
2022/08/12 10:13:43;;;;;;;1.23;0.70;;;31.50;83.80;;;;;;5054992;28;20171;-74
2022/08/12 10:16:21;;;;;;;1.05;0.90;;;31.50;83.70;;;;;;5055289;28;20151;-74
2022/08/12 10:18:53;;;;;;;1.92;1.00;;;31.50;83.90;;;;;;5054883;28;20036;-74
2022/08/12 10:21:35;;;;;;;1.30;0.90;;;31.50;83.50;;;;;;5054519;28;20057;-74
2022/08/12 10:24:05;;;;;;;0.80;0.80;;;31.70;82.50;;;;;;5054361;28;20080;-74
2022/08/12 10:29:35;;;;;;;0.60;0.60;;;31.90;82.20;;;;;;5054473;28;20070;-74
2022/08/12 10:32:02;;;;;;;0.50;0.50;;;32.10;81.60;;;;;;5072819;28;20384;-74
2022/08/12 10:34:29;;;;;;;0.75;0.70;;;32.20;82.10;;;;;;5054417;28;20052;-74
2022/08/12 10:36:57;;;;;;;1.40;1.00;;;32.10;80.30;;;;;;5021268;28;20056;-74
2022/08/12 10:39:31;;;;;;;1.08;0.80;;;32.10;79.30;;;;;;5054226;28;20115;-74
2022/08/12 10:45:04;;;;;;;0.98;0.70;;;32.20;80.30;;;;;;4987019;28;20050;-74
2022/08/12 10:47:31;;;;;;;0.93;0.60;;;32.30;79.30;;;;;;5037272;28;20060;-75
2022/08/12 10:49:58;;;;;;;1.13;0.80;;;32.50;79.00;;;;;;5054443;28;20367;-74
2022/08/12 10:52:25;;;;;;;0.50;0.50;;;32.50;78.60;;;;;;5035709;28;20056;-75
2022/08/12 10:54:54;;;;;;;0.70;0.70;;;32.30;76.60;;;;;;5051315;28;20476;-75
2022/08/12 10:57:20;;;;;;;1.52;0.70;;;32.50;77.80;;;;;;5036191;28;20131;-73
2022/08/12 10:59:46;;;;;;;0.80;0.60;;;32.60;80.80;;;;;;5053275;28;20040;-74
2022/08/12 11:02:13;;;;;;;0.93;0.80;;;32.70;77.90;;;;;;5054221;28;20228;-74
2022/08/12 11:04:40;;;;;;;0.70;0.70;;;32.80;77.40;;;;;;5053575;28;20078;-74
2022/08/12 11:07:07;;;;;;;0.93;0.90;;;32.90;76.50;;;;;;5087387;28;20130;-74
2022/08/12 11:09:34;;;;;;;1.13;0.90;;;32.70;76.50;;;;;;5087330;28;20052;-73
2022/08/12 11:12:05;;;;;;;1.20;0.80;;;32.70;76.40;;;;;;5054129;28;20040;-73
2022/08/12 11:14:40;;;;;;;0.95;0.77;;;32.80;75.90;;;;;;5053539;28;20048;-72
2022/08/12 11:17:14;;;;;;;1.20;0.90;;;32.90;76.00;;;;;;5053208;28;20071;-73
2022/08/12 11:19:42;;;;;;;0.77;0.70;;;32.90;75.40;;;;;;5052739;28;20063;-72
2022/08/12 11:22:09;;;;;;;0.93;0.70;;;33.10;75.50;;;;;;5052419;28;20147;-72
2022/08/12 11:24:36;;;;;;;0.95;0.80;;;33.10;75.50;;;;;;5051957;28;20055;-72
2022/08/12 11:27:05;;;;;;;3.03;1.00;;;33.10;78.50;;;;;;5051826;28;20448;-72
2022/08/12 11:29:31;;;;;;;1.02;0.90;;;32.90;74.00;;;;;;5053361;28;20048;-72
2022/08/12 11:31:57;;;;;;;0.65;0.65;;;32.90;75.00;;;;;;5052369;28;20043;-72
2022/08/12 11:34:22;;;;;;;0.93;0.80;;;33.10;74.60;;;;;;5053245;28;20036;-72
2022/08/12 11:36:56;;;;;;;0.63;0.63;;;33.20;73.50;;;;;;5053670;28;20083;-72
2022/08/12 11:39:22;;;;;;;0.60;0.57;;;33.30;73.90;;;;;;5036622;28;20120;-72
2022/08/12 11:41:48;;;;;;;0.60;0.60;;;33.60;74.10;;;;;;5053243;28;20045;-72
2022/08/12 11:44:15;;;;;;;1.42;0.57;;;33.70;74.60;;;;;;5036755;28;20119;-72
2022/08/12 11:46:42;;;;;;;0.50;0.50;;;33.90;74.50;;;;;;5070055;28;20036;-72
2022/08/12 11:49:08;;;;;;;0.68;0.60;;;34.10;74.60;;;;;;5037019;28;20037;-72
2022/08/12 11:51:35;;;;;;;0.60;0.60;;;34.20;73.00;;;;;;5086646;28;20058;-72
2022/08/12 11:54:02;;;;;;;1.17;0.77;;;34.30;73.00;;;;;;5052994;28;20037;-72
2022/08/12 11:56:28;;;;;;;0.55;0.55;;;34.20;73.10;;;;;;5053011;28;20054;-72
2022/08/12 11:58:54;;;;;;;0.88;0.60;;;34.10;72.70;;;;;;5053256;28;20052;-71
2022/08/12 12:01:20;;;;;;;0.77;0.77;;;34.20;72.80;;;;;;5053051;28;20510;-72
2022/08/12 12:03:46;;;;;;;1.35;0.90;;;34.10;75.10;;;;;;5053199;28;20045;-71
2022/08/12 12:06:16;;;;;;;0.80;0.80;;;33.80;72.30;;;;;;5052646;28;20502;-71
2022/08/12 12:08:42;;;;;;;1.02;0.80;;;33.70;73.90;;;;;;5052967;28;20349;-71
2022/08/12 12:11:08;;;;;;;1.30;1.00;;;33.50;71.80;;;;;;5053276;28;20072;-71
2022/08/12 12:13:34;;;;;;;1.50;0.90;;;33.60;73.30;;;;;;5036171;28;20138;-71
2022/08/12 12:15:59;;;;;;;0.98;0.80;;;33.50;73.40;;;;;;5052898;28;20071;-71
2022/08/12 12:18:27;;;;;;;0.90;0.80;;;33.60;73.90;;;;;;5052867;28;20079;-71
2022/08/12 12:20:58;;;;;;;0.82;0.80;;;33.50;72.50;;;;;;5071286;28;20040;-70
2022/08/12 12:23:24;;;;;;;0.95;0.77;;;33.60;72.30;;;;;;5052759;28;20059;-71
2022/08/12 12:25:50;;;;;;;0.60;0.60;;;33.60;72.50;;;;;;5019739;28;20472;-71
2022/08/12 12:28:16;;;;;;;0.50;0.50;;;33.90;72.90;;;;;;5052788;28;20904;-72
2022/08/12 12:30:42;;;;;;;1.00;0.60;;;34.00;73.00;;;;;;5052956;28;20048;-71
2022/08/12 12:33:09;;;;;;;0.68;0.60;;;34.10;71.90;;;;;;5052449;28;20472;-71
2022/08/12 12:35:36;;;;;;;0.50;0.50;;;34.10;71.30;;;;;;5052626;28;20047;-71
2022/08/12 12:38:06;;;;;;;0.50;0.50;;;34.20;71.40;;;;;;5052422;28;20080;-71
2022/08/12 12:40:33;;;;;;;2.08;0.52;;;34.40;71.40;;;;;;5052662;28;20040;-71
2022/08/12 12:43:00;;;;;;;0.32;0.32;;;34.40;72.60;;;;;;5035987;28;20049;-71
2022/08/12 12:45:28;;;;;;;0.40;0.40;;;34.30;72.00;;;;;;5069481;28;20119;-71
2022/08/12 12:47:59;;;;;;;1.30;0.60;;;34.40;71.20;;;;;;5052776;28;20032;-71
2022/08/12 12:50:28;;;;;;;1.58;0.60;;;34.30;72.40;;;;;;5052534;28;20032;-71
2022/08/12 12:52:54;;;;;;;0.77;0.60;;;34.40;72.40;;;;;;5052376;28;20048;-72
2022/08/12 12:55:21;;;;;;;0.60;0.60;;;34.30;71.10;;;;;;5052755;28;20476;-72
2022/08/12 12:57:47;;;;;;;2.03;0.75;;;34.30;70.40;;;;;;5052673;28;20063;-72
2022/08/12 13:00:14;;;;;;;0.50;0.50;;;34.10;70.80;;;;;;5036010;28;20490;-70
2022/08/12 13:02:55;;;;;;;1.70;0.60;;;34.20;70.70;;;;;;5052242;28;20050;-71
2022/08/12 13:05:24;;;;;;;0.55;0.50;;;34.20;70.10;;;;;;5052376;28;20052;-71
2022/08/12 13:07:55;;;;;;;1.02;0.60;;;34.30;69.10;;;;;;5035944;28;20404;-71
2022/08/12 13:10:22;;;;;;;1.13;0.70;;;34.10;70.10;;;;;;5052579;28;20124;-71
2022/08/12 13:12:49;;;;;;;1.65;0.80;;;34.00;70.30;;;;;;5052173;28;20050;-72
2022/08/12 13:15:15;;;;;;;0.77;0.60;;;33.90;70.50;;;;;;5052521;28;20197;-71
2022/08/12 13:17:49;;;;;;;0.65;0.65;;;34.00;70.40;;;;;;5036100;28;20052;-72
2022/08/12 13:20:16;;;;;;;0.95;0.70;;;34.00;70.60;;;;;;5056079;28;20056;-72
2022/08/12 13:22:43;;;;;;;0.80;0.70;;;34.00;69.30;;;;;;5055628;28;20104;-71
2022/08/12 13:25:10;;;;;;;1.58;0.98;;;33.60;68.90;;;;;;5055690;28;20057;-71
2022/08/12 13:27:44;;;;;;;1.10;0.70;;;33.50;69.40;;;;;;5055819;28;20449;-72
2022/08/12 13:30:15;;;;;;;1.13;0.70;;;33.70;69.30;;;;;;5055792;28;20102;-72
2022/08/12 13:32:49;;;;;;;0.60;0.60;;;33.80;70.20;;;;;;5055507;28;20048;-72
2022/08/12 13:35:16;;;;;;;0.68;0.63;;;34.00;69.70;;;;;;5039206;28;20044;-71
2022/08/12 13:37:43;;;;;;;0.60;0.60;;;33.80;69.20;;;;;;5055604;28;20105;-73
2022/08/12 13:40:10;;;;;;;1.75;0.95;;;34.00;69.40;;;;;;5088747;28;20052;-73
2022/08/12 13:42:38;;;;;;;1.27;0.90;;;33.60;69.00;;;;;;5055576;28;20098;-72
2022/08/12 13:45:06;;;;;;;0.98;0.70;;;33.40;69.10;;;;;;5055486;28;20049;-72
2022/08/12 13:48:05;;;;;;;0.75;0.70;;;33.20;68.90;;;;;;5055270;28;20063;-72
2022/08/12 13:50:35;;;;;;;0.60;0.60;;;33.30;69.50;;;;;;5022330;28;20040;-73
2022/08/12 13:53:17;;;;;;;1.23;0.63;;;33.50;69.20;;;;;;5055020;28;20120;-70
2022/08/12 13:55:48;;;;;;;0.85;0.50;;;33.50;69.30;;;;;;5055072;28;20051;-70
2022/08/12 13:58:21;;;;;;;0.40;0.40;;;33.60;69.30;;;;;;5055014;28;20048;-72
2022/08/12 14:00:52;;;;;;;1.70;0.55;;;33.60;69.30;;;;;;5055190;28;20048;-72
2022/08/12 14:03:23;;;;;;;0.60;0.60;;;33.60;69.40;;;;;;5054766;28;20049;-72
2022/08/12 14:05:49;;;;;;;1.13;0.70;;;33.50;69.00;;;;;;5055311;28;20069;-72
2022/08/12 14:08:15;;;;;;;0.82;0.80;;;33.70;68.80;;;;;;5054836;28;20055;-72
2022/08/12 14:10:50;;;;;;;0.75;0.50;;;33.60;68.80;;;;;;5054903;28;20053;-72
2022/08/12 14:13:22;;;;;;;0.70;0.50;;;33.70;69.10;;;;;;5055008;28;20522;-71
2022/08/12 14:15:56;;;;;;;0.55;0.50;;;33.70;69.40;;;;;;5038579;28;20547;-71
2022/08/12 14:18:30;;;;;;;0.80;0.50;;;33.70;69.40;;;;;;5054989;28;20048;-71
2022/08/12 14:21:00;;;;;;;0.95;0.57;;;33.80;69.90;;;;;;5038048;28;20495;-72
2022/08/12 14:23:38;;;;;;;0.60;0.60;;;34.00;70.70;;;;;;5054410;28;20056;-71
2022/08/12 14:26:05;;;;;;;0.95;0.80;;;34.00;70.60;;;;;;5054447;28;20033;-71
2022/08/12 14:28:33;;;;;;;0.65;0.52;;;33.80;70.00;;;;;;5054554;28;20176;-71
2022/08/12 14:31:07;;;;;;;0.82;0.70;;;33.80;69.80;;;;;;5054524;28;20126;-71
2022/08/12 14:33:38;;;;;;;1.10;0.80;;;33.50;69.00;;;;;;5054498;28;20483;-71
2022/08/12 14:36:06;;;;;;;0.82;0.70;;;33.50;68.60;;;;;;5054124;28;20065;-70
2022/08/12 14:38:38;;;;;;;0.60;0.60;;;33.40;69.40;;;;;;5054363;28;20037;-71
2022/08/12 14:41:05;;;;;;;0.50;0.50;;;33.50;69.20;;;;;;5054381;28;20051;-71
2022/08/12 14:43:34;;;;;;;0.52;0.52;;;33.50;68.70;;;;;;5054581;28;20093;-71
2022/08/12 14:46:01;;;;;;;1.15;0.73;;;33.40;69.60;;;;;;5021708;28;20049;-72